Time;durP1;ratioP1;P1;durP2;ratioP2;P2;SDS_P1;SDS_P2;PMS_P1;PMS_P2;Temp;Humidity;BMP_temperature;BMP_pressure;BME280_temperature;BME280_humidity;BME280_pressure;Samples;Min_cycle;Max_cycle;Signal;HPM_P1;HPM_P2
2022/03/09 00:00:26;;;;;;;12.02;6.85;;;5.20;99.90;;;;;;6251000;22;20058;-89
2022/03/09 00:02:54;;;;;;;10.50;5.03;;;5.20;99.90;;;;;;6277314;22;20066;-89
2022/03/09 00:05:23;;;;;;;11.38;5.63;;;5.20;99.90;;;;;;6250736;22;20043;-89
2022/03/09 00:07:50;;;;;;;10.30;5.53;;;5.10;99.90;;;;;;6250342;22;20023;-89
2022/03/09 00:10:22;;;;;;;8.63;5.50;;;5.10;99.90;;;;;;6252000;22;20435;-89
2022/03/09 00:12:48;;;;;;;9.52;5.78;;;5.10;99.90;;;;;;6249995;22;20498;-89
2022/03/09 00:15:15;;;;;;;9.68;5.55;;;5.10;99.90;;;;;;6277116;22;20087;-88
2022/03/09 00:17:42;;;;;;;6.72;3.85;;;5.10;99.90;;;;;;6250124;22;20019;-89
2022/03/09 00:20:09;;;;;;;8.82;5.47;;;5.10;99.90;;;;;;6224807;22;20027;-89
2022/03/09 00:22:36;;;;;;;7.57;4.75;;;5.10;99.90;;;;;;6249609;22;20083;-89
2022/03/09 00:25:03;;;;;;;9.55;4.63;;;4.90;99.90;;;;;;6277530;22;20019;-89
2022/03/09 00:27:31;;;;;;;13.52;6.10;;;5.00;99.90;;;;;;6250075;22;20023;-89
2022/03/09 00:29:58;;;;;;;10.30;6.28;;;5.00;99.90;;;;;;6250177;22;20019;-88
2022/03/09 00:32:25;;;;;;;10.45;5.78;;;5.00;99.90;;;;;;6249364;22;20018;-89
2022/03/09 00:34:52;;;;;;;11.25;4.88;;;5.00;99.90;;;;;;6250269;22;20015;-89
2022/03/09 00:37:18;;;;;;;7.75;4.43;;;4.90;99.90;;;;;;6250077;22;20023;-89
2022/03/09 00:39:45;;;;;;;8.50;4.90;;;4.90;99.90;;;;;;6250103;22;20383;-89
2022/03/09 00:42:12;;;;;;;10.93;5.40;;;4.90;99.90;;;;;;6249714;22;20015;-89
2022/03/09 00:44:40;;;;;;;8.30;4.55;;;4.90;99.90;;;;;;6250618;22;20347;-89
2022/03/09 00:47:07;;;;;;;11.60;5.10;;;4.90;99.90;;;;;;6276986;22;20434;-89
2022/03/09 00:49:36;;;;;;;7.78;4.57;;;4.90;99.90;;;;;;6251121;22;20015;-89
2022/03/09 00:52:03;;;;;;;8.45;4.63;;;4.90;99.90;;;;;;6276586;22;20039;-89
2022/03/09 00:54:30;;;;;;;10.32;4.88;;;4.90;99.90;;;;;;6250086;22;20012;-89
2022/03/09 00:56:57;;;;;;;12.65;5.47;;;4.90;99.90;;;;;;6250216;22;20041;-90
2022/03/09 00:59:24;;;;;;;9.13;4.68;;;4.80;99.90;;;;;;6224672;22;20018;-89
2022/03/09 01:01:51;;;;;;;11.13;5.72;;;4.80;99.90;;;;;;6249733;22;20015;-88
2022/03/09 01:04:18;;;;;;;11.20;5.53;;;4.70;99.90;;;;;;6249637;22;20027;-89
2022/03/09 01:06:45;;;;;;;10.55;5.50;;;4.70;99.90;;;;;;6277331;22;20400;-89
2022/03/09 01:09:12;;;;;;;13.30;6.88;;;4.70;99.90;;;;;;6250078;22;20055;-89
2022/03/09 01:11:41;;;;;;;13.70;5.88;;;4.50;99.90;;;;;;6251030;22;20024;-89
2022/03/09 01:14:08;;;;;;;12.45;7.10;;;4.70;99.90;;;;;;6226834;22;20016;-90
2022/03/09 01:16:36;;;;;;;9.35;5.32;;;4.70;99.90;;;;;;6227351;22;20020;-89
2022/03/09 01:19:02;;;;;;;10.23;5.40;;;4.70;99.90;;;;;;6251527;22;20134;-89
2022/03/09 01:21:30;;;;;;;13.85;6.80;;;4.70;99.90;;;;;;6252162;22;20054;-89
2022/03/09 01:23:57;;;;;;;8.50;5.32;;;4.70;99.90;;;;;;6251330;22;20016;-89
2022/03/09 01:26:24;;;;;;;11.85;6.15;;;4.70;99.90;;;;;;6251837;22;20429;-90
2022/03/09 01:28:51;;;;;;;10.10;5.47;;;4.60;99.90;;;;;;6251974;22;20023;-89
2022/03/09 01:31:18;;;;;;;13.45;7.03;;;4.70;99.90;;;;;;6251657;22;20158;-89
2022/03/09 01:33:47;;;;;;;12.52;6.00;;;4.60;99.90;;;;;;6252186;22;20020;-89
2022/03/09 01:36:14;;;;;;;9.43;5.30;;;4.50;99.90;;;;;;6278745;22;20095;-89
2022/03/09 01:38:47;;;;;;;10.25;5.22;;;4.50;99.90;;;;;;6253675;22;20020;-89
2022/03/09 01:41:14;;;;;;;9.40;5.40;;;4.50;99.90;;;;;;6251809;22;20120;-89
2022/03/09 01:43:41;;;;;;;9.55;5.55;;;4.60;99.90;;;;;;6278674;22;20104;-89
2022/03/09 01:46:08;;;;;;;11.00;6.03;;;4.50;99.90;;;;;;6251432;22;20019;-89
2022/03/09 01:48:36;;;;;;;9.30;5.47;;;4.40;99.90;;;;;;6252527;22;20024;-89
2022/03/09 01:51:03;;;;;;;10.23;5.80;;;4.40;99.90;;;;;;6226492;22;20444;-89
2022/03/09 01:53:30;;;;;;;10.27;5.25;;;4.50;99.90;;;;;;6251010;22;20020;-89
2022/03/09 01:55:57;;;;;;;11.57;6.63;;;4.50;99.90;;;;;;6251650;22;20046;-90
2022/03/09 01:58:24;;;;;;;9.90;6.60;;;4.40;99.90;;;;;;6251966;22;20015;-89
2022/03/09 02:00:51;;;;;;;13.43;7.15;;;4.50;99.90;;;;;;6250971;22;20323;-89
2022/03/09 02:03:18;;;;;;;10.32;5.95;;;4.30;99.90;;;;;;6251170;22;20074;-89
2022/03/09 02:05:45;;;;;;;9.27;4.93;;;4.40;99.90;;;;;;6225989;22;20362;-89
2022/03/09 02:10:59;;;;;;;10.05;5.93;;;4.40;99.90;;;;;;6251397;22;20046;-89
2022/03/09 02:13:25;;;;;;;10.70;4.90;;;4.40;99.90;;;;;;6250684;22;20028;-89
2022/03/09 02:15:52;;;;;;;15.88;7.20;;;4.40;99.90;;;;;;6226215;22;20020;-90
2022/03/09 02:18:19;;;;;;;13.25;6.40;;;4.30;99.90;;;;;;6251256;22;20070;-89
2022/03/09 02:20:49;;;;;;;11.25;5.55;;;4.30;99.90;;;;;;6250827;22;20016;-89
2022/03/09 02:23:16;;;;;;;11.65;6.28;;;4.30;99.90;;;;;;6250625;22;20026;-88
2022/03/09 02:25:43;;;;;;;10.15;5.10;;;4.30;99.90;;;;;;6252090;22;20016;-89
2022/03/09 02:28:10;;;;;;;10.35;5.72;;;4.30;99.90;;;;;;6226241;22;20047;-89
2022/03/09 02:30:37;;;;;;;9.70;5.07;;;4.30;99.90;;;;;;6251114;22;20027;-89
2022/03/09 02:33:05;;;;;;;12.65;5.95;;;4.30;99.90;;;;;;6250642;22;20054;-89
2022/03/09 02:35:32;;;;;;;12.05;6.80;;;4.30;99.90;;;;;;6251518;22;20035;-89
2022/03/09 02:37:59;;;;;;;9.52;5.72;;;4.30;99.90;;;;;;6251246;22;20019;-89
2022/03/09 02:40:26;;;;;;;10.57;5.53;;;4.20;99.90;;;;;;6225912;22;20019;-89
2022/03/09 02:42:53;;;;;;;10.77;6.07;;;4.20;99.90;;;;;;6225419;22;20062;-89
2022/03/09 02:45:19;;;;;;;9.27;4.88;;;4.20;99.90;;;;;;6225663;22;20439;-89
2022/03/09 02:47:46;;;;;;;8.93;4.75;;;4.20;99.90;;;;;;6251283;22;20022;-89
2022/03/09 02:50:15;;;;;;;11.40;5.32;;;4.20;99.90;;;;;;6251172;22;20039;-89
2022/03/09 02:52:44;;;;;;;12.02;6.45;;;4.00;99.90;;;;;;6251227;22;20501;-89
2022/03/09 02:55:11;;;;;;;9.60;5.40;;;4.00;99.90;;;;;;6251224;22;20315;-89
2022/03/09 02:57:39;;;;;;;10.60;6.00;;;4.10;99.90;;;;;;6250937;22;20409;-89
2022/03/09 03:00:07;;;;;;;13.15;6.80;;;4.10;99.90;;;;;;6250992;22;20016;-89
2022/03/09 03:02:36;;;;;;;10.75;5.55;;;4.10;99.90;;;;;;6250693;22;20508;-90
2022/03/09 03:05:06;;;;;;;10.25;5.63;;;4.10;99.90;;;;;;6277664;22;20039;-89
2022/03/09 03:07:33;;;;;;;9.43;5.38;;;4.00;99.90;;;;;;6251505;22;20090;-89
2022/03/09 03:10:01;;;;;;;14.60;6.20;;;4.00;99.90;;;;;;6226064;22;20023;-89
2022/03/09 03:12:28;;;;;;;9.50;5.57;;;4.00;99.90;;;;;;6277142;22;20019;-89
2022/03/09 03:14:55;;;;;;;7.37;4.87;;;4.00;99.90;;;;;;6225715;22;20397;-89
2022/03/09 03:17:22;;;;;;;11.40;6.07;;;4.10;99.90;;;;;;6250540;22;20062;-90
2022/03/09 03:19:49;;;;;;;15.90;6.83;;;4.10;99.90;;;;;;6225258;22;20050;-89
2022/03/09 03:22:16;;;;;;;10.60;6.13;;;4.00;99.90;;;;;;6250383;22;20073;-89
2022/03/09 03:24:42;;;;;;;9.50;5.23;;;3.90;99.90;;;;;;6250239;22;20023;-89
2022/03/09 03:27:10;;;;;;;9.97;6.03;;;3.90;99.90;;;;;;6277593;22;20016;-89
2022/03/09 03:29:36;;;;;;;9.97;6.00;;;3.90;99.90;;;;;;6250272;22;20024;-88
2022/03/09 03:32:04;;;;;;;9.80;5.97;;;3.90;99.90;;;;;;6250095;22;20026;-89
2022/03/09 03:34:31;;;;;;;10.40;5.60;;;4.00;99.90;;;;;;6224836;22;20034;-89
2022/03/09 03:36:58;;;;;;;11.80;5.60;;;3.90;99.90;;;;;;6250896;22;20050;-89
2022/03/09 03:39:25;;;;;;;15.63;7.30;;;3.90;99.90;;;;;;6250405;22;20048;-89
2022/03/09 03:41:52;;;;;;;8.30;4.83;;;3.60;99.90;;;;;;6250302;22;20020;-89
2022/03/09 03:44:19;;;;;;;9.83;6.07;;;3.70;99.90;;;;;;6250430;22;20015;-89
2022/03/09 03:46:46;;;;;;;9.63;5.43;;;3.90;99.90;;;;;;6250982;22;20012;-89
2022/03/09 03:49:13;;;;;;;9.73;5.15;;;3.90;99.90;;;;;;6250478;22;20023;-89
2022/03/09 03:51:40;;;;;;;10.13;5.20;;;3.90;99.90;;;;;;6250145;22;20447;-89
2022/03/09 03:54:07;;;;;;;12.77;6.47;;;3.90;99.90;;;;;;6250206;22;20110;-89
2022/03/09 03:56:34;;;;;;;11.03;5.60;;;3.80;99.90;;;;;;6250359;22;20045;-90
2022/03/09 03:59:01;;;;;;;10.33;5.13;;;3.80;99.90;;;;;;6250676;22;20018;-89
2022/03/09 04:01:28;;;;;;;9.03;5.23;;;3.80;99.90;;;;;;6277131;22;20090;-90
2022/03/09 04:03:55;;;;;;;10.37;5.90;;;3.80;99.90;;;;;;6277016;22;20023;-89
2022/03/09 04:06:27;;;;;;;12.17;5.97;;;3.80;99.90;;;;;;6251499;22;20050;-89
2022/03/09 04:08:54;;;;;;;9.83;5.03;;;3.80;99.90;;;;;;6250260;22;20095;-90
2022/03/09 04:11:21;;;;;;;12.27;6.70;;;3.80;99.90;;;;;;6250854;22;20027;-89
2022/03/09 04:13:48;;;;;;;9.88;5.13;;;3.80;99.90;;;;;;6250267;22;20040;-89
2022/03/09 04:16:15;;;;;;;9.70;5.73;;;3.70;99.90;;;;;;6250680;22;20011;-89
2022/03/09 04:18:42;;;;;;;12.17;6.07;;;3.70;99.90;;;;;;6250801;22;20016;-89
2022/03/09 04:21:09;;;;;;;8.63;5.13;;;3.70;99.90;;;;;;6225168;22;20018;-89
2022/03/09 04:23:36;;;;;;;9.43;5.45;;;3.70;99.90;;;;;;6249968;22;20085;-89
2022/03/09 04:26:07;;;;;;;12.73;5.73;;;3.70;99.90;;;;;;6225856;22;20055;-89
2022/03/09 04:28:35;;;;;;;8.13;4.88;;;3.70;99.90;;;;;;6200294;22;20020;-89
2022/03/09 04:31:01;;;;;;;10.97;5.00;;;3.50;99.90;;;;;;6250234;22;20019;-89
2022/03/09 04:33:29;;;;;;;11.57;5.77;;;3.60;99.90;;;;;;6249606;22;20046;-89
2022/03/09 04:35:57;;;;;;;10.88;5.22;;;3.60;99.90;;;;;;6250608;22;20026;-89
2022/03/09 04:38:25;;;;;;;10.37;5.30;;;3.60;99.90;;;;;;6250464;22;20046;-89
2022/03/09 04:40:52;;;;;;;8.70;4.97;;;3.60;99.90;;;;;;6250707;22;20053;-89
2022/03/09 04:43:19;;;;;;;14.00;6.27;;;3.60;99.90;;;;;;6249090;22;20108;-89
2022/03/09 04:45:46;;;;;;;10.73;5.57;;;3.50;99.90;;;;;;6252452;22;20447;-89
2022/03/09 04:48:13;;;;;;;8.20;4.90;;;3.50;99.90;;;;;;6253559;22;20016;-89
2022/03/09 04:50:39;;;;;;;12.23;5.70;;;3.50;99.90;;;;;;6253297;22;20022;-89
2022/03/09 04:53:06;;;;;;;11.37;6.10;;;3.50;99.90;;;;;;6253419;22;20016;-89
2022/03/09 04:55:33;;;;;;;9.03;5.40;;;3.50;99.90;;;;;;6253217;22;20022;-89
2022/03/09 04:58:00;;;;;;;10.80;5.20;;;3.40;99.90;;;;;;6253619;22;20387;-89
2022/03/09 05:00:27;;;;;;;10.93;5.67;;;3.40;99.90;;;;;;6228325;22;20046;-89
2022/03/09 05:02:55;;;;;;;11.97;5.57;;;3.40;99.90;;;;;;6228123;22;20023;-88
2022/03/09 05:05:22;;;;;;;9.30;4.57;;;3.40;99.90;;;;;;6228446;22;20102;-89
2022/03/09 05:07:49;;;;;;;16.03;6.90;;;3.40;99.90;;;;;;6253119;22;20020;-89
2022/03/09 05:10:15;;;;;;;8.93;4.90;;;3.40;99.90;;;;;;6253596;22;20043;-88
2022/03/09 05:12:43;;;;;;;10.57;5.80;;;3.40;99.90;;;;;;6253258;22;20019;-89
2022/03/09 05:15:10;;;;;;;9.33;5.37;;;3.40;99.90;;;;;;6228109;22;20347;-89
2022/03/09 05:17:44;;;;;;;8.20;5.33;;;3.40;99.90;;;;;;6254029;22;20020;-89
2022/03/09 05:20:12;;;;;;;;;;;3.40;99.90;;;;;;6228418;22;20015;-89
2022/03/09 05:22:38;;;;;;;9.67;4.27;;;3.40;99.90;;;;;;6252739;22;19915;-89
2022/03/09 05:25:06;;;;;;;11.63;5.37;;;3.40;99.90;;;;;;6253320;22;20026;-89
2022/03/09 05:27:37;;;;;;;12.67;5.67;;;3.30;99.90;;;;;;6254344;22;20020;-89
2022/03/09 05:30:04;;;;;;;11.13;5.47;;;3.30;99.90;;;;;;6253227;22;20019;-89
2022/03/09 05:32:32;;;;;;;10.27;5.67;;;3.30;99.90;;;;;;6278440;22;20020;-89
2022/03/09 05:34:59;;;;;;;12.73;6.03;;;3.30;99.90;;;;;;6253891;22;20069;-89
2022/03/09 05:37:28;;;;;;;11.00;5.67;;;3.30;99.90;;;;;;6227964;22;20043;-89
2022/03/09 05:39:55;;;;;;;8.83;5.10;;;3.20;99.90;;;;;;6228168;22;20020;-89
2022/03/09 05:42:22;;;;;;;11.17;5.57;;;3.20;99.90;;;;;;6279979;22;20023;-89
2022/03/09 05:44:49;;;;;;;13.77;5.37;;;3.20;99.90;;;;;;6279786;22;20835;-88
2022/03/09 05:47:36;;;;;;;12.40;5.50;;;3.20;99.90;;;;;;6257485;22;20015;-89
2022/03/09 05:50:05;;;;;;;12.80;5.63;;;3.20;99.90;;;;;;6253613;22;20073;-89
2022/03/09 05:52:32;;;;;;;11.23;5.40;;;3.10;99.90;;;;;;6227267;22;20023;-89
2022/03/09 05:54:59;;;;;;;10.27;6.53;;;3.20;99.90;;;;;;6252534;22;20343;-89
2022/03/09 05:57:26;;;;;;;11.73;5.93;;;3.20;99.90;;;;;;6251277;22;20047;-89
2022/03/09 05:59:53;;;;;;;8.80;4.97;;;3.10;99.90;;;;;;6226026;22;20020;-90
2022/03/09 06:02:20;;;;;;;11.93;5.07;;;3.10;99.90;;;;;;6250578;22;20015;-89
2022/03/09 06:04:48;;;;;;;9.50;5.10;;;3.10;99.90;;;;;;6251261;22;20019;-89
2022/03/09 06:07:15;;;;;;;8.77;5.27;;;3.10;99.90;;;;;;6277054;22;20020;-89
2022/03/09 06:09:42;;;;;;;8.17;4.50;;;3.10;99.90;;;;;;6245513;22;20023;-91
2022/03/09 06:12:13;;;;;;;8.80;5.10;;;3.00;99.90;;;;;;6247510;22;20094;-88
2022/03/09 06:14:40;;;;;;;14.67;6.20;;;3.00;99.90;;;;;;6278721;22;20020;-89
2022/03/09 06:17:07;;;;;;;10.07;5.77;;;3.00;99.90;;;;;;6251442;22;20031;-89
2022/03/09 06:19:34;;;;;;;11.13;5.40;;;3.00;99.90;;;;;;6278468;22;20012;-88
2022/03/09 06:22:01;;;;;;;10.50;5.00;;;3.00;99.90;;;;;;6251451;22;20098;-89
2022/03/09 06:24:28;;;;;;;11.43;5.23;;;3.10;99.90;;;;;;6250526;22;20077;-89
2022/03/09 06:26:55;;;;;;;11.47;6.30;;;3.00;99.90;;;;;;6225718;22;20405;-90
2022/03/09 06:29:22;;;;;;;11.60;4.93;;;3.00;99.90;;;;;;6251121;22;20077;-89
2022/03/09 06:31:49;;;;;;;11.20;4.93;;;3.10;99.90;;;;;;6250568;22;20043;-90
2022/03/09 06:34:16;;;;;;;10.07;5.07;;;3.00;99.90;;;;;;6250927;22;20042;-90
2022/03/09 06:36:44;;;;;;;8.80;4.40;;;3.00;99.90;;;;;;6251057;22;20015;-92
2022/03/09 06:39:14;;;;;;;9.13;4.93;;;3.00;99.90;;;;;;6277791;22;20015;-91
2022/03/09 06:41:41;;;;;;;9.63;5.53;;;3.00;99.90;;;;;;6250680;22;20023;-89
2022/03/09 06:44:09;;;;;;;10.43;5.97;;;3.00;99.90;;;;;;6250920;22;20409;-89
2022/03/09 06:46:36;;;;;;;13.30;6.47;;;3.00;99.90;;;;;;6251037;22;20071;-89
2022/03/09 06:49:03;;;;;;;9.60;5.27;;;3.00;99.90;;;;;;6250807;22;20514;-88
2022/03/09 06:51:30;;;;;;;13.40;6.07;;;3.00;99.90;;;;;;6249965;22;20016;-89
2022/03/09 06:53:58;;;;;;;11.93;5.43;;;3.00;99.90;;;;;;6277943;22;20020;-89
2022/03/09 06:56:25;;;;;;;11.80;5.30;;;2.90;99.90;;;;;;6251154;22;20024;-88
2022/03/09 06:58:52;;;;;;;12.00;6.33;;;3.00;99.90;;;;;;6252114;22;20016;-90
2022/03/09 07:01:19;;;;;;;12.37;5.27;;;3.00;99.90;;;;;;6250756;22;20451;-90
2022/03/09 07:04:03;;;;;;;8.80;5.40;;;2.90;99.90;;;;;;6254172;22;20019;-88
2022/03/09 07:06:58;;;;;;;11.60;5.57;;;2.90;99.90;;;;;;6249648;22;20015;-88
2022/03/09 07:09:33;;;;;;;9.83;5.50;;;2.80;99.90;;;;;;6225758;22;20048;-87
2022/03/09 07:12:19;;;;;;;10.97;6.20;;;2.80;99.90;;;;;;6276807;22;20015;-88
2022/03/09 07:15:08;;;;;;;12.53;5.90;;;2.80;99.90;;;;;;6257029;22;20324;-89
2022/03/09 07:17:36;;;;;;;13.93;7.37;;;2.80;99.90;;;;;;6275771;22;20023;-90
2022/03/09 07:20:06;;;;;;;12.23;6.47;;;2.80;99.90;;;;;;6225482;22;20020;-88
2022/03/09 07:22:42;;;;;;;16.00;8.80;;;2.90;99.90;;;;;;6276844;22;20011;-89
2022/03/09 07:25:25;;;;;;;12.07;6.03;;;2.80;99.90;;;;;;6250797;22;20016;-88
2022/03/09 07:28:11;;;;;;;9.60;5.10;;;2.80;99.90;;;;;;6277146;22;20019;-88
2022/03/09 07:30:38;;;;;;;12.97;5.80;;;2.80;99.90;;;;;;6275668;22;20450;-89
2022/03/09 07:33:33;;;;;;;11.53;6.57;;;2.90;99.90;;;;;;6252058;22;20016;-88
2022/03/09 07:37:00;;;;;;;10.90;5.30;;;2.90;99.90;;;;;;6212717;22;20012;-90
2022/03/09 07:39:39;;;;;;;12.43;6.30;;;2.90;99.90;;;;;;6252065;22;20012;-88
2022/03/09 07:42:16;;;;;;;13.40;7.93;;;3.00;99.90;;;;;;6249279;22;20047;-89
2022/03/09 07:45:09;;;;;;;13.97;6.40;;;3.00;99.90;;;;;;6249725;22;20015;-88
2022/03/09 07:47:40;;;;;;;15.77;8.13;;;3.00;99.90;;;;;;6249660;22;20033;-91
2022/03/09 07:50:09;;;;;;;15.97;8.47;;;3.10;99.90;;;;;;6250162;22;20046;-90
2022/03/09 07:52:41;;;;;;;17.53;7.43;;;3.10;99.90;;;;;;6225424;22;20446;-91
2022/03/09 07:55:09;;;;;;;14.90;7.23;;;3.20;99.90;;;;;;6250058;22;20094;-90
2022/03/09 07:57:48;;;;;;;15.20;7.63;;;3.30;99.90;;;;;;6275120;22;20024;-91
2022/03/09 08:00:57;;;;;;;16.23;7.73;;;3.40;99.90;;;;;;6250224;22;20015;-90
2022/03/09 08:03:33;;;;;;;18.50;6.47;;;3.50;99.90;;;;;;6249087;22;20015;-90
2022/03/09 08:06:24;;;;;;;15.57;8.77;;;3.60;99.90;;;;;;6277010;22;20054;-90
2022/03/09 08:09:31;;;;;;;16.47;7.87;;;3.70;99.90;;;;;;6259747;22;20057;-89
2022/03/09 08:11:59;;;;;;;14.20;7.28;;;3.80;99.90;;;;;;6251007;22;20069;-92
2022/03/09 08:14:27;;;;;;;13.60;7.73;;;3.90;99.90;;;;;;6225737;22;20114;-92
2022/03/09 08:17:15;;;;;;;17.30;7.47;;;4.00;99.90;;;;;;6255061;22;20020;-92
2022/03/09 08:19:42;;;;;;;14.60;7.60;;;4.10;99.90;;;;;;6277333;22;20167;-89
2022/03/09 08:22:09;;;;;;;13.50;7.87;;;4.20;99.90;;;;;;6250434;22;20050;-89
2022/03/09 08:24:37;;;;;;;17.87;8.57;;;4.30;99.90;;;;;;6251187;22;20019;-91
2022/03/09 08:27:06;;;;;;;15.37;7.80;;;4.50;99.90;;;;;;6250508;22;20030;-91
2022/03/09 08:29:33;;;;;;;15.13;6.83;;;4.60;99.90;;;;;;6251593;22;20073;-91
2022/03/09 08:32:00;;;;;;;13.03;7.63;;;4.70;99.90;;;;;;6250756;22;20027;-91
2022/03/09 08:34:27;;;;;;;18.77;8.37;;;4.80;99.90;;;;;;6251230;22;20015;-89
2022/03/09 08:36:59;;;;;;;17.25;7.63;;;4.90;99.90;;;;;;6250779;22;20393;-90
2022/03/09 08:39:27;;;;;;;12.75;6.78;;;5.00;99.90;;;;;;6250773;22;20042;-92
2022/03/09 08:42:02;;;;;;;16.88;8.25;;;5.00;99.90;;;;;;6251181;22;20023;-91
2022/03/09 08:44:51;;;;;;;11.35;6.55;;;5.10;99.90;;;;;;6216173;22;20022;-90
2022/03/09 08:47:19;;;;;;;15.20;8.43;;;5.20;99.90;;;;;;6251041;22;20024;-93
2022/03/09 08:49:47;;;;;;;11.53;7.03;;;5.20;99.90;;;;;;6250966;22;20020;-94
2022/03/09 08:52:15;;;;;;;14.93;6.97;;;5.30;99.90;;;;;;6250183;22;20016;-92
2022/03/09 08:54:42;;;;;;;12.88;7.60;;;5.30;99.90;;;;;;6225618;22;20011;-93
2022/03/09 08:57:09;;;;;;;16.67;8.00;;;5.30;99.90;;;;;;6251151;22;20023;-92
2022/03/09 08:59:37;;;;;;;13.27;6.68;;;5.50;99.90;;;;;;6251116;22;20020;-93
2022/03/09 09:02:04;;;;;;;19.27;8.75;;;5.50;99.90;;;;;;6251315;22;20019;-93
2022/03/09 09:04:34;;;;;;;13.40;7.68;;;5.50;99.90;;;;;;6250533;22;20105;-93
2022/03/09 09:07:03;;;;;;;16.83;8.32;;;5.70;99.40;;;;;;6226457;22;20024;-93
2022/03/09 09:09:38;;;;;;;15.25;8.02;;;5.70;93.60;;;;;;6251762;22;20091;-91
2022/03/09 09:12:10;;;;;;;14.68;6.85;;;5.80;87.80;;;;;;6251016;22;20065;-94
2022/03/09 09:14:37;;;;;;;14.55;8.05;;;5.80;80.10;;;;;;6251179;22;20093;-91
2022/03/09 09:17:08;;;;;;;14.88;8.07;;;5.80;99.90;;;;;;6250849;22;20020;-91
2022/03/09 09:19:58;;;;;;;16.88;7.80;;;5.80;70.30;;;;;;6255122;22;20026;-93
2022/03/09 09:22:25;;;;;;;15.70;7.88;;;5.90;66.70;;;;;;6250780;22;20077;-93
2022/03/09 09:24:52;;;;;;;15.52;8.18;;;6.00;53.50;;;;;;6251359;22;20026;-92
2022/03/09 09:27:19;;;;;;;17.85;8.48;;;6.10;47.50;;;;;;6225243;22;20026;-92
2022/03/09 09:30:07;;;;;;;16.70;7.82;;;6.30;40.20;;;;;;6229588;22;20023;-92
2022/03/09 09:32:37;;;;;;;18.63;8.70;;;6.60;30.20;;;;;;6252002;22;20024;-92
2022/03/09 09:35:05;;;;;;;16.13;9.25;;;6.50;28.40;;;;;;6227165;22;20446;-93
2022/03/09 09:37:32;;;;;;;14.40;7.72;;;6.60;28.10;;;;;;6252226;22;20066;-92
2022/03/09 09:39:59;;;;;;;19.33;9.63;;;6.60;25.70;;;;;;6252445;22;20316;-93
2022/03/09 09:42:30;;;;;;;21.73;8.57;;;6.70;22.90;;;;;;6252021;22;20026;-94
2022/03/09 09:45:17;;;;;;;17.95;8.60;;;6.80;22.70;;;;;;6232270;22;20106;-90
2022/03/09 09:47:50;;;;;;;22.17;9.10;;;6.80;21.60;;;;;;6253534;22;20443;-92
2022/03/09 09:50:17;;;;;;;16.10;8.68;;;6.90;21.60;;;;;;6227284;22;20078;-93
2022/03/09 09:52:45;;;;;;;16.48;8.15;;;6.90;21.60;;;;;;6227313;22;20019;-93
2022/03/09 09:55:13;;;;;;;17.80;8.57;;;6.90;22.60;;;;;;6286033;22;20015;-92
2022/03/09 09:57:47;;;;;;;21.67;9.25;;;7.10;21.90;;;;;;6283936;22;20018;-94
2022/03/09 10:00:17;;;;;;;17.60;8.57;;;7.20;19.10;;;;;;6235218;22;20016;-94
2022/03/09 10:02:47;;;;;;;21.85;9.98;;;7.20;20.20;;;;;;6252407;22;20023;-92
2022/03/09 10:05:16;;;;;;;21.88;9.15;;;7.30;19.10;;;;;;6252763;22;20080;-93
2022/03/09 10:08:13;;;;;;;18.83;9.52;;;7.40;20.40;;;;;;6252744;22;20024;-92
2022/03/09 10:10:43;;;;;;;18.38;9.65;;;7.60;18.60;;;;;;6228280;22;20433;-91
2022/03/09 10:13:24;;;;;;;18.15;10.52;;;7.80;15.80;;;;;;6260989;22;20504;-90
2022/03/09 10:16:11;;;;;;;19.67;11.15;;;7.80;17.90;;;;;;6229536;22;20022;-91
2022/03/09 10:18:46;;;;;;;18.40;9.88;;;7.80;17.90;;;;;;6253887;22;20016;-91
2022/03/09 10:21:19;;;;;;;24.55;10.77;;;8.00;17.00;;;;;;6279208;22;20011;-90
2022/03/09 10:23:54;;;;;;;;;;;8.20;15.30;;;;;;6253549;22;20026;-91
2022/03/09 10:26:27;;;;;;;19.23;9.45;;;8.20;15.20;;;;;;6279013;22;20329;-92
2022/03/09 10:29:05;;;;;;;21.55;11.05;;;8.30;13.70;;;;;;6252305;22;20020;-91
2022/03/09 10:31:43;;;;;;;21.13;10.65;;;8.30;14.10;;;;;;6226701;22;20040;-91
2022/03/09 10:34:20;;;;;;;23.63;10.85;;;8.30;14.30;;;;;;6253314;22;20498;-91
2022/03/09 10:37:02;;;;;;;25.00;11.27;;;8.50;14.80;;;;;;6252120;22;20020;-91
2022/03/09 10:39:37;;;;;;;20.55;10.40;;;8.60;14.80;;;;;;6278911;22;20044;-91
2022/03/09 10:42:25;;;;;;;;;;;8.80;14.00;;;;;;6277437;22;20018;-91
2022/03/09 10:44:55;;;;;;;22.02;10.13;;;8.70;14.50;;;;;;6213650;22;19916;-91
2022/03/09 10:47:31;;;;;;;22.33;10.88;;;8.90;12.10;;;;;;6251974;22;20015;-92
2022/03/09 10:50:21;;;;;;;20.67;11.18;;;8.90;12.20;;;;;;6251987;22;20105;-92
2022/03/09 10:52:56;;;;;;;21.38;10.30;;;8.90;11.60;;;;;;6226195;22;20048;-92
2022/03/09 10:55:33;;;;;;;24.73;11.55;;;9.10;11.00;;;;;;6226417;22;20019;-91
2022/03/09 10:58:22;;;;;;;27.38;12.30;;;9.10;9.60;;;;;;6226474;22;20023;-92
2022/03/09 11:00:55;;;;;;;27.15;13.15;;;9.30;9.40;;;;;;6251744;22;20049;-92
2022/03/09 11:03:25;;;;;;;29.02;11.60;;;9.30;8.90;;;;;;6226045;22;20020;-92
2022/03/09 11:06:01;;;;;;;25.48;11.70;;;9.20;8.80;;;;;;6252488;22;20023;-92
2022/03/09 11:08:36;;;;;;;27.95;13.02;;;9.40;8.90;;;;;;6252540;22;20023;-93
2022/03/09 11:11:14;;;;;;;23.38;11.77;;;9.50;9.50;;;;;;6279579;22;20019;-90
2022/03/09 11:13:43;;;;;;;23.08;11.48;;;9.50;8.90;;;;;;6251725;22;20070;-91
2022/03/09 11:16:17;;;;;;;25.88;11.48;;;9.60;9.00;;;;;;6252671;22;20016;-91
2022/03/09 11:18:48;;;;;;;;;;;9.60;10.50;;;;;;6252389;22;20042;-91
2022/03/09 11:21:23;;;;;;;26.00;11.98;;;9.70;9.00;;;;;;6251309;22;20000;-91
2022/03/09 11:23:53;;;;;;;21.35;11.02;;;9.80;8.90;;;;;;6253969;22;20385;-90
2022/03/09 11:26:30;;;;;;;28.20;12.95;;;9.90;7.60;;;;;;6251826;22;20354;-91
2022/03/09 11:29:09;;;;;;;24.10;11.75;;;9.90;9.20;;;;;;6252107;22;20043;-92
2022/03/09 11:31:51;;;;;;;24.95;12.40;;;10.00;6.30;;;;;;6251021;22;20046;-93
2022/03/09 11:34:45;;;;;;;30.92;14.00;;;9.90;9.20;;;;;;6251727;22;20019;-91
2022/03/09 11:37:22;;;;;;;26.10;12.13;;;10.10;6.90;;;;;;6226114;22;20087;-92
2022/03/09 11:40:05;;;;;;;26.83;12.80;;;10.30;7.20;;;;;;6251710;22;20122;-93
2022/03/09 11:42:42;;;;;;;23.20;12.45;;;10.40;8.10;;;;;;6252910;22;20026;-92
2022/03/09 11:45:40;;;;;;;;;;;;;;;;;;;;;
2022/03/09 11:49:04;;;;;;;24.83;12.63;;;10.60;7.50;;;;;;6267356;22;20094;-93
2022/03/09 11:51:36;;;;;;;28.58;13.27;;;10.70;7.00;;;;;;6251268;22;20022;-91
2022/03/09 11:54:41;;;;;;;25.52;13.90;;;10.80;6.00;;;;;;6228117;22;20016;-92
2022/03/09 11:57:08;;;;;;;25.85;12.20;;;10.90;7.50;;;;;;6225814;22;20016;-91
2022/03/09 11:59:37;;;;;;;29.02;13.20;;;11.00;6.20;;;;;;6250615;22;20020;-92
2022/03/09 12:02:10;;;;;;;29.23;11.88;;;11.10;6.30;;;;;;6226395;22;20017;-91
2022/03/09 12:04:45;;;;;;;26.30;12.43;;;11.20;4.60;;;;;;6252461;22;20012;-91
2022/03/09 12:07:13;;;;;;;24.95;12.57;;;11.20;6.10;;;;;;6225852;22;20454;-92
2022/03/09 12:10:02;;;;;;;26.00;12.15;;;11.20;5.70;;;;;;6226707;22;20020;-94
2022/03/09 12:12:39;;;;;;;27.02;13.40;;;11.20;5.30;;;;;;6251127;22;20018;-93
2022/03/09 12:15:17;;;;;;;26.30;13.35;;;11.30;4.30;;;;;;6226231;22;20020;-94
2022/03/09 12:17:48;;;;;;;23.45;12.80;;;11.30;4.50;;;;;;6226713;22;20098;-93
2022/03/09 12:20:28;;;;;;;26.17;12.35;;;11.30;5.00;;;;;;6226142;22;20089;-93
2022/03/09 12:22:55;;;;;;;27.52;13.32;;;11.30;3.90;;;;;;6250431;22;20022;-93
2022/03/09 12:25:43;;;;;;;27.88;13.80;;;11.40;4.10;;;;;;6250392;22;20050;-91
2022/03/09 12:28:29;;;;;;;25.50;12.38;;;11.40;4.40;;;;;;6225817;22;20023;-93
2022/03/09 12:31:08;;;;;;;26.38;12.52;;;11.50;4.30;;;;;;6250700;22;20069;-94
2022/03/09 12:33:38;;;;;;;25.50;13.30;;;11.50;6.20;;;;;;6277421;22;20024;-94
2022/03/09 12:36:32;;;;;;;24.20;12.85;;;11.70;4.80;;;;;;6251410;22;20015;-93
2022/03/09 12:39:30;;;;;;;27.00;13.02;;;11.70;5.80;;;;;;6257763;22;20073;-93
2022/03/09 12:42:40;;;;;;;27.35;13.43;;;11.70;4.60;;;;;;6266812;22;20043;-91
2022/03/09 12:45:10;;;;;;;26.33;13.57;;;11.80;5.10;;;;;;6251037;22;20030;-90
2022/03/09 12:47:43;;;;;;;21.25;12.15;;;11.80;5.00;;;;;;6251663;22;20074;-91
2022/03/09 12:50:13;;;;;;;26.45;11.57;;;12.00;6.00;;;;;;6251079;22;20023;-91
2022/03/09 12:52:46;;;;;;;25.30;12.90;;;11.90;4.10;;;;;;6277402;22;20042;-92
2022/03/09 12:55:21;;;;;;;23.75;12.77;;;12.00;7.20;;;;;;6253088;22;20039;-91
2022/03/09 12:57:58;;;;;;;26.77;13.02;;;12.00;5.00;;;;;;6250981;22;20069;-92
2022/03/09 13:00:27;;;;;;;27.42;14.02;;;12.00;7.80;;;;;;6225608;22;20024;-91
2022/03/09 13:02:54;;;;;;;26.42;13.10;;;12.10;4.40;;;;;;6250416;22;20020;-90
2022/03/09 13:05:28;;;;;;;24.48;13.40;;;12.10;3.80;;;;;;6225558;22;20482;-92
2022/03/09 13:08:16;;;;;;;24.08;12.82;;;12.20;4.70;;;;;;6228400;22;20044;-92
2022/03/09 13:10:55;;;;;;;23.17;12.60;;;12.20;5.20;;;;;;6279518;22;20016;-91
2022/03/09 13:13:48;;;;;;;25.00;12.25;;;12.30;4.20;;;;;;6253039;22;20098;-92
2022/03/09 13:17:06;;;;;;;25.00;12.52;;;12.30;5.40;;;;;;6229777;22;20012;-92